createdAt,value
2018-10-21T00:01:03.307Z,101675.92
2018-10-21T00:02:10.351Z,101682.48
2018-10-21T00:03:16.991Z,101677.06
2018-10-21T00:04:23.210Z,101677.66
2018-10-21T00:05:29.193Z,101679.23
2018-10-21T00:06:35.173Z,101679.84
2018-10-21T00:07:41.213Z,101687.67
2018-10-21T00:08:47.310Z,101683.08
2018-10-21T00:09:53.337Z,101687.68
2018-10-21T00:10:59.326Z,101686.66
2018-10-21T00:12:04.726Z,101685.95
2018-10-21T00:13:10.823Z,101684.41
2018-10-21T00:14:17.130Z,101680.45
2018-10-21T00:15:24.514Z,101681.39
2018-10-21T00:16:30.790Z,101683.36
2018-10-21T00:17:36.890Z,101686.66
2018-10-21T00:18:43.178Z,101686.80
2018-10-21T00:19:49.176Z,101685.56
2018-10-21T00:20:55.313Z,101688.14
2018-10-21T00:22:01.608Z,101692.25
2018-10-21T00:23:07.759Z,101691.33
2018-10-21T00:24:13.835Z,101690.52
2018-10-21T00:25:19.807Z,101693.81
2018-10-21T00:26:25.883Z,101689.25
2018-10-21T00:27:31.964Z,101690.09
2018-10-21T00:28:38.063Z,101691.41
2018-10-21T00:29:44.181Z,101685.81
2018-10-21T00:30:50.468Z,101687.30
2018-10-21T00:31:56.589Z,101689.53
2018-10-21T00:33:02.967Z,101685.61
2018-10-21T00:34:10.289Z,101686.53
2018-10-21T00:35:15.845Z,101687.52
2018-10-21T00:36:21.942Z,101690.26
2018-10-21T00:37:28.023Z,101696.38
2018-10-21T00:38:34.391Z,101690.92
2018-10-21T00:39:40.310Z,101687.77
2018-10-21T00:40:46.679Z,101691.36
2018-10-21T00:41:52.753Z,101697.39
2018-10-21T00:42:59.093Z,101697.06
2018-10-21T00:44:04.714Z,101699.08
2018-10-21T00:45:11.163Z,101697.83
2018-10-21T00:46:17.409Z,101700.20
2018-10-21T00:47:23.497Z,101702.22
2018-10-21T00:48:29.536Z,101699.37
2018-10-21T00:49:35.612Z,101696.19
2018-10-21T00:50:41.549Z,101699.88
2018-10-21T00:51:47.655Z,101694.36
2018-10-21T00:52:53.877Z,101702.15
2018-10-21T00:54:00.252Z,101700.24
2018-10-21T00:55:13.846Z,101701.77
2018-10-21T00:56:22.027Z,101695.66
2018-10-21T00:57:28.085Z,101702.43
2018-10-21T00:58:34.416Z,101695.14
2018-10-21T00:59:40.739Z,101701.56
2018-10-21T01:00:47.119Z,101698.51
2018-10-21T01:01:51.978Z,101702.09
2018-10-21T01:02:58.395Z,101703.39
2018-10-21T01:04:04.645Z,101705.20
2018-10-21T01:05:10.577Z,101708.11
2018-10-21T01:06:16.302Z,101711.39
2018-10-21T01:07:22.354Z,101708.44
2018-10-21T01:08:28.677Z,101710.00
2018-10-21T01:09:34.953Z,101716.48
2018-10-21T01:10:41.266Z,101710.88
2018-10-21T01:11:47.410Z,101712.07
2018-10-21T01:12:53.685Z,101711.23
2018-10-21T01:13:59.889Z,101712.19
2018-10-21T01:15:05.467Z,101719.85
2018-10-21T01:16:16.553Z,101718.23
2018-10-21T01:17:26.921Z,101719.88
2018-10-21T01:18:33.162Z,101720.57
2018-10-21T01:19:39.254Z,101709.56
2018-10-21T01:20:45.282Z,101716.30
2018-10-21T01:21:51.240Z,101714.22
2018-10-21T01:22:57.580Z,101712.80
2018-10-21T01:24:03.893Z,101709.07
2018-10-21T01:25:09.853Z,101703.97
2018-10-21T01:26:15.865Z,101712.05
2018-10-21T01:27:21.899Z,101710.06
2018-10-21T01:28:28.219Z,101708.89
2018-10-21T01:29:34.518Z,101711.87
2018-10-21T01:30:40.842Z,101716.64
2018-10-21T01:31:46.960Z,101716.62
2018-10-21T01:32:53.275Z,101713.28
2018-10-21T01:33:59.570Z,101715.25
2018-10-21T01:35:05.197Z,101709.67
2018-10-21T01:36:11.310Z,101711.56
2018-10-21T01:37:17.245Z,101711.17
2018-10-21T01:38:23.891Z,101709.16
2018-10-21T01:39:29.826Z,101701.05
2018-10-21T01:40:35.133Z,101704.77
2018-10-21T01:41:41.173Z,101696.30
2018-10-21T01:42:47.205Z,101695.20
2018-10-21T01:43:53.523Z,101691.78
2018-10-21T01:45:00.530Z,101698.64
2018-10-21T01:46:06.853Z,101692.73
2018-10-21T01:47:12.965Z,101695.36
2018-10-21T01:48:19.455Z,101687.78
2018-10-21T01:49:25.778Z,101685.83
2018-10-21T01:50:32.107Z,101692.73
2018-10-21T01:51:38.214Z,101691.66
2018-10-21T01:52:44.509Z,101681.58
2018-10-21T01:53:50.835Z,101683.12
2018-10-21T01:54:56.894Z,101686.02
2018-10-21T01:56:02.916Z,101686.48
2018-10-21T01:57:09.102Z,101678.81
2018-10-21T01:58:15.671Z,101682.01
2018-10-21T01:59:21.978Z,101681.29
2018-10-21T02:00:28.302Z,101682.31
2018-10-21T02:01:34.374Z,101681.28
2018-10-21T02:02:40.711Z,101681.02
2018-10-21T02:03:46.494Z,101685.54
2018-10-21T02:04:52.695Z,101682.41
2018-10-21T02:05:58.601Z,101680.54
2018-10-21T02:07:04.153Z,101684.22
2018-10-21T02:08:10.328Z,101684.23
2018-10-21T02:09:16.316Z,101686.54
2018-10-21T02:10:22.757Z,101685.84
2018-10-21T02:11:28.704Z,101681.21
2018-10-21T02:12:34.594Z,101689.22
2018-10-21T02:13:40.810Z,101683.61
2018-10-21T02:14:47.036Z,101685.41
2018-10-21T02:15:53.210Z,101683.11
2018-10-21T02:16:59.081Z,101683.51
2018-10-21T02:18:04.299Z,101685.61
2018-10-21T02:19:10.525Z,101682.39
2018-10-21T02:20:16.465Z,101686.40
2018-10-21T02:21:22.408Z,101682.04
2018-10-21T02:22:28.641Z,101687.78
2018-10-21T02:23:34.831Z,101676.97
2018-10-21T02:24:41.031Z,101677.14
2018-10-21T02:25:47.229Z,101673.57
2018-10-21T02:26:53.231Z,101676.72
2018-10-21T02:27:59.594Z,101684.72
2018-10-21T02:29:05.156Z,101677.73
2018-10-21T02:30:11.463Z,101677.07
2018-10-21T02:31:17.376Z,101674.25
2018-10-21T02:32:23.285Z,101678.80
2018-10-21T02:33:29.631Z,101675.30
2018-10-21T02:34:35.925Z,101677.03
2018-10-21T02:35:42.107Z,101673.47
2018-10-21T02:36:48.056Z,101670.94
2018-10-21T02:37:53.953Z,101670.50
2018-10-21T02:39:00.253Z,101675.60
2018-10-21T02:40:05.607Z,101671.37
2018-10-21T02:43:02.377Z,101664.98
2018-10-21T02:44:08.753Z,101667.78
2018-10-21T02:45:15.099Z,101671.06
2018-10-21T02:46:20.637Z,101662.90
2018-10-21T02:47:26.587Z,101663.77
2018-10-21T02:48:32.590Z,101669.52
2018-10-21T02:49:38.960Z,101665.73
2018-10-21T02:50:45.399Z,101661.80
2018-10-21T02:51:50.847Z,101663.73
2018-10-21T02:52:57.156Z,101667.80
2018-10-21T02:54:03.569Z,101658.77
2018-10-21T02:55:10.694Z,101660.66
2018-10-21T02:56:16.678Z,101665.21
2018-10-21T02:57:22.683Z,101660.72
2018-10-21T02:58:28.995Z,101660.28
2018-10-21T02:59:35.153Z,101659.98
2018-10-21T03:00:41.453Z,101662.02
2018-10-21T03:01:47.647Z,101662.89
2018-10-21T03:02:53.670Z,101664.13
2018-10-21T03:03:59.985Z,101667.05
2018-10-21T03:05:05.593Z,101669.02
2018-10-21T03:06:11.652Z,101667.94
2018-10-21T03:07:17.631Z,101669.03
2018-10-21T03:08:23.609Z,101669.92
2018-10-21T03:09:29.593Z,101671.56
2018-10-21T03:10:35.887Z,101672.00
2018-10-21T03:11:41.911Z,101676.39
2018-10-21T03:12:48.187Z,101674.06
2018-10-21T03:13:54.374Z,101673.97
2018-10-21T03:15:00.772Z,101672.24
2018-10-21T03:16:06.605Z,101675.64
2018-10-21T03:17:12.749Z,101674.59
2018-10-21T03:18:19.046Z,101674.77
2018-10-21T03:19:25.571Z,101680.78
2018-10-21T03:20:31.906Z,101678.19
2018-10-21T03:21:37.940Z,101683.52
2018-10-21T03:22:44.473Z,101674.34
2018-10-21T03:23:51.342Z,101677.72
2018-10-21T03:24:58.918Z,101679.40
2018-10-21T03:26:04.268Z,101674.27
2018-10-21T03:27:10.334Z,101676.09
2018-10-21T03:28:16.952Z,101680.36
2018-10-21T03:29:23.031Z,101679.94
2018-10-21T03:30:29.055Z,101679.05
2018-10-21T03:31:34.880Z,101681.61
2018-10-21T03:32:41.038Z,101689.97
2018-10-21T03:33:47.537Z,101688.32
2018-10-21T03:34:54.109Z,101683.52
2018-10-21T03:36:00.180Z,101693.12
2018-10-21T03:37:05.498Z,101695.27
2018-10-21T03:38:11.834Z,101687.39
2018-10-21T03:39:18.139Z,101690.02
2018-10-21T03:40:24.491Z,101687.08
2018-10-21T03:41:30.949Z,101682.14
2018-10-21T03:42:37.225Z,101686.52
2018-10-21T03:43:43.233Z,101686.48
2018-10-21T03:44:49.699Z,101689.11
2018-10-21T03:45:56.065Z,101691.33
2018-10-21T03:47:02.563Z,101694.80
2018-10-21T03:48:08.977Z,101687.28
2018-10-21T03:49:15.290Z,101688.52
2018-10-21T03:50:21.783Z,101687.58
2018-10-21T03:51:27.796Z,101689.75
2018-10-21T03:52:33.816Z,101693.69
2018-10-21T03:53:40.139Z,101694.06
2018-10-21T03:54:45.919Z,101696.75
2018-10-21T03:55:51.930Z,101699.08
2018-10-21T03:56:57.974Z,101698.59
2018-10-21T03:58:04.041Z,101693.98
2018-10-21T03:59:10.239Z,101695.43
2018-10-21T04:00:16.365Z,101693.54
2018-10-21T04:01:22.389Z,101702.81
2018-10-21T04:02:28.152Z,101698.56
2018-10-21T04:03:33.812Z,101700.41
2018-10-21T04:04:39.877Z,101702.56
2018-10-21T04:05:45.963Z,101701.48
2018-10-21T04:06:51.961Z,101697.20
2018-10-21T04:07:57.954Z,101697.96
2018-10-21T04:09:03.670Z,101701.56
2018-10-21T04:10:10.066Z,101699.73
2018-10-21T04:11:16.404Z,101701.83
2018-10-21T04:12:22.129Z,101700.28
2018-10-21T04:13:28.360Z,101696.29
2018-10-21T04:14:35.266Z,101698.85
2018-10-21T04:15:41.577Z,101698.84
2018-10-21T04:16:47.573Z,101702.15
2018-10-21T04:17:53.827Z,101701.56
2018-10-21T04:18:59.792Z,101700.80
2018-10-21T04:20:05.798Z,101696.68
2018-10-21T04:21:12.539Z,101704.73
2018-10-21T04:22:18.781Z,101704.32
2018-10-21T04:23:24.920Z,101706.05
2018-10-21T04:24:30.941Z,101702.20
2018-10-21T04:25:37.305Z,101700.81
2018-10-21T04:26:43.299Z,101701.60
2018-10-21T04:27:49.565Z,101704.45
2018-10-21T04:28:55.875Z,101701.47
2018-10-21T04:30:02.346Z,101694.98
2018-10-21T04:31:09.540Z,101696.67
2018-10-21T04:32:16.111Z,101693.72
2018-10-21T04:33:21.836Z,101685.57
2018-10-21T04:34:27.875Z,101693.56
2018-10-21T04:35:34.330Z,101693.76
2018-10-21T04:36:40.519Z,101694.12
2018-10-21T04:37:48.708Z,101691.78
2018-10-21T04:39:06.010Z,101688.86
2018-10-21T04:40:12.353Z,101688.73
2018-10-21T04:41:18.875Z,101678.31
2018-10-21T04:42:24.944Z,101673.44
2018-10-21T04:43:31.340Z,101680.63
2018-10-21T04:44:37.662Z,101681.55
2018-10-21T04:45:44.005Z,101686.02
2018-10-21T04:46:50.136Z,101680.05
2018-10-21T04:47:56.610Z,101681.43
2018-10-21T04:49:03.040Z,101682.47
2018-10-21T04:50:09.355Z,101681.45
2018-10-21T04:51:15.368Z,101682.06
2018-10-21T04:52:21.119Z,101688.22
2018-10-21T04:53:27.395Z,101685.89
2018-10-21T04:54:33.723Z,101685.44
2018-10-21T04:55:40.018Z,101684.72
2018-10-21T04:56:46.050Z,101686.99
2018-10-21T04:57:52.125Z,101684.05
2018-10-21T04:58:58.096Z,101680.16
2018-10-21T05:00:03.464Z,101684.22
2018-10-21T05:01:09.448Z,101688.41
2018-10-21T05:02:15.765Z,101685.94
2018-10-21T05:03:21.855Z,101683.28
2018-10-21T05:04:27.897Z,101681.44
2018-10-21T05:05:33.905Z,101678.69
2018-10-21T05:06:39.927Z,101679.03
2018-10-21T05:07:46.215Z,101679.04
2018-10-21T05:08:52.227Z,101675.91
2018-10-21T05:09:58.326Z,101676.42
2018-10-21T05:11:04.674Z,101676.00
2018-10-21T05:12:10.710Z,101677.78
2018-10-21T05:13:17.023Z,101674.33
2018-10-21T05:14:23.081Z,101677.55
2018-10-21T05:15:29.103Z,101678.08
2018-10-21T05:16:35.265Z,101677.56
2018-10-21T05:17:41.608Z,101681.28
2018-10-21T05:18:47.616Z,101683.22
2018-10-21T05:19:53.644Z,101680.38
2018-10-21T05:20:59.714Z,101674.77
2018-10-21T05:22:05.749Z,101682.73
2018-10-21T05:23:12.203Z,101684.67
2018-10-21T05:24:18.508Z,101681.53
2018-10-21T05:25:24.808Z,101680.22
2018-10-21T05:26:30.811Z,101683.84
2018-10-21T05:27:36.963Z,101689.66
2018-10-21T05:28:43.480Z,101683.75
2018-10-21T05:29:49.500Z,101684.48
2018-10-21T05:31:03.262Z,101684.16
2018-10-21T05:32:14.524Z,101689.72
2018-10-21T05:33:20.797Z,101693.66
2018-10-21T05:34:26.899Z,101687.67
2018-10-21T05:35:32.883Z,101695.17
2018-10-21T05:36:38.942Z,101691.59
2018-10-21T05:37:45.278Z,101690.44
2018-10-21T05:38:51.454Z,101691.66
2018-10-21T05:39:57.460Z,101687.96
2018-10-21T05:41:03.636Z,101688.69
2018-10-21T05:42:09.676Z,101688.85
2018-10-21T05:43:15.677Z,101690.78
2018-10-21T05:44:21.681Z,101690.87
2018-10-21T05:45:27.946Z,101690.56
2018-10-21T05:46:34.006Z,101692.02
2018-10-21T05:47:39.684Z,101689.16
2018-10-21T05:48:45.607Z,101689.58
2018-10-21T05:49:51.905Z,101697.41
2018-10-21T05:50:57.904Z,101699.48
2018-10-21T05:52:10.385Z,101700.82
2018-10-21T05:53:16.683Z,101697.64
2018-10-21T05:54:22.887Z,101703.92
2018-10-21T05:55:28.910Z,101699.88
2018-10-21T05:56:35.098Z,101706.09
2018-10-21T05:57:41.177Z,101701.88
2018-10-21T05:58:47.468Z,101711.15
2018-10-21T05:59:53.466Z,101704.16
2018-10-21T06:00:59.711Z,101708.58
2018-10-21T06:02:05.750Z,101713.02
2018-10-21T06:03:11.723Z,101710.32
2018-10-21T06:04:17.773Z,101716.80
2018-10-21T06:05:23.292Z,101721.59
2018-10-21T06:06:29.355Z,101727.04
2018-10-21T06:07:35.375Z,101722.23
2018-10-21T06:08:41.437Z,101724.84
2018-10-21T06:09:47.871Z,101727.89
2018-10-21T06:10:53.847Z,101721.80
2018-10-21T06:11:59.896Z,101721.10
2018-10-21T06:13:05.529Z,101727.03
2018-10-21T06:14:11.543Z,101725.53
2018-10-21T06:15:17.526Z,101721.85
2018-10-21T06:16:23.550Z,101727.27
2018-10-21T06:17:29.520Z,101725.11
2018-10-21T06:18:35.510Z,101722.10
2018-10-21T06:38:30.074Z,101746.56
2018-10-21T06:39:36.046Z,101744.17
2018-10-21T06:40:42.243Z,101738.23
2018-10-21T06:41:48.263Z,101740.84
2018-10-21T06:42:54.827Z,101740.98
2018-10-21T06:44:01.975Z,101740.70
2018-10-21T06:45:08.231Z,101747.12
2018-10-21T06:46:14.971Z,101747.27
2018-10-21T06:47:21.333Z,101757.66
2018-10-21T06:48:28.118Z,101758.90
2018-10-21T06:49:35.380Z,101759.45
2018-10-21T06:50:41.463Z,101761.20
2018-10-21T06:51:50.704Z,101755.63
2018-10-21T06:52:57.313Z,101755.86
2018-10-21T06:54:04.330Z,101756.44
2018-10-21T06:55:10.719Z,101754.28
2018-10-21T06:56:17.231Z,101757.52
2018-10-21T06:57:24.094Z,101758.39
2018-10-21T06:58:30.748Z,101758.83
2018-10-21T06:59:37.290Z,101760.17
2018-10-21T07:00:43.854Z,101753.81
2018-10-21T07:01:50.545Z,101753.61
2018-10-21T07:02:57.206Z,101754.98
2018-10-21T07:04:03.794Z,101760.98
2018-10-21T07:05:09.565Z,101762.14
2018-10-21T07:06:16.611Z,101759.36
2018-10-21T07:07:23.280Z,101762.79
2018-10-21T07:08:29.456Z,101758.98
2018-10-21T07:09:36.481Z,101760.23
2018-10-21T07:10:43.426Z,101762.33
2018-10-21T07:11:49.524Z,101762.46
2018-10-21T07:12:56.054Z,101769.04
2018-10-21T07:14:02.489Z,101765.39
2018-10-21T07:15:09.066Z,101758.48
2018-10-21T07:16:15.249Z,101758.61
2018-10-21T07:17:22.001Z,101761.71
2018-10-21T07:18:28.433Z,101759.09
2018-10-21T07:19:35.115Z,101770.90
2018-10-21T07:20:41.494Z,101773.08
2018-10-21T07:21:47.651Z,101770.88
2018-10-21T07:22:54.413Z,101773.92
2018-10-21T07:24:01.070Z,101772.91
2018-10-21T07:25:07.636Z,101777.77
2018-10-21T07:26:13.571Z,101778.70
2018-10-21T07:27:19.572Z,101775.66
2018-10-21T07:28:25.920Z,101776.02
2018-10-21T07:29:32.315Z,101776.70
2018-10-21T07:30:38.996Z,101779.09
2018-10-21T07:31:45.886Z,101781.86
2018-10-21T07:32:52.760Z,101775.77
2018-10-21T07:33:58.865Z,101778.52
2018-10-21T07:35:05.324Z,101780.69
2018-10-21T07:36:12.079Z,101777.58
2018-10-21T07:37:19.599Z,101779.31
2018-10-21T07:38:26.773Z,101784.14
2018-10-21T07:39:33.586Z,101779.90
2018-10-21T07:40:40.019Z,101781.70
2018-10-21T07:41:47.168Z,101778.20
2018-10-21T07:42:53.720Z,101772.48
2018-10-21T07:44:00.094Z,101775.81
2018-10-21T07:45:06.082Z,101783.63
2018-10-21T07:46:12.525Z,101784.81
2018-10-21T07:47:18.918Z,101784.81
2018-10-21T07:48:25.826Z,101790.30
2018-10-21T07:49:32.784Z,101785.38
2018-10-21T07:50:39.345Z,101791.97
2018-10-21T07:51:47.007Z,101783.44
2018-10-21T07:53:00.158Z,101783.85
2018-10-21T07:54:08.919Z,101785.67
2018-10-21T07:55:16.721Z,101785.59
2018-10-21T07:56:28.418Z,101782.85
2018-10-21T07:57:35.328Z,101788.53
2018-10-21T07:58:41.966Z,101788.02
2018-10-21T07:59:51.649Z,101791.35
2018-10-21T08:00:58.807Z,101785.57
2018-10-21T08:02:05.454Z,101783.48
2018-10-21T08:03:12.090Z,101785.28
2018-10-21T08:04:18.527Z,101786.84
2018-10-21T08:05:26.480Z,101791.78
2018-10-21T08:08:13.170Z,101787.22
2018-10-21T08:09:19.878Z,101788.28
2018-10-21T08:10:26.579Z,101792.31
2018-10-21T08:11:33.228Z,101790.36
2018-10-21T08:12:39.195Z,101793.49
2018-10-21T08:13:45.897Z,101791.80
2018-10-21T08:14:52.301Z,101791.00
2018-10-21T08:16:13.137Z,101793.50
2018-10-21T08:21:44.737Z,101794.95
2018-10-21T08:22:50.735Z,101790.65
2018-10-21T08:23:57.145Z,101799.98
2018-10-21T08:25:03.756Z,101789.02
2018-10-21T08:26:10.268Z,101794.98
2018-10-21T08:27:16.854Z,101797.14
2018-10-21T08:28:23.380Z,101798.91
2018-10-21T08:29:29.366Z,101800.41
2018-10-21T08:30:35.395Z,101799.44
2018-10-21T08:31:41.342Z,101799.03
2018-10-21T08:32:47.250Z,101798.77
2018-10-21T08:33:53.633Z,101799.09
2018-10-21T08:34:59.820Z,101801.79
2018-10-21T08:36:06.614Z,101800.16
2018-10-21T08:37:13.078Z,101800.42
2018-10-21T08:38:19.276Z,101799.80
2018-10-21T08:39:25.540Z,101804.56
2018-10-21T08:40:31.632Z,101797.97
2018-10-21T08:41:37.809Z,101799.08
2018-10-21T08:42:44.661Z,101797.64
2018-10-21T08:43:50.597Z,101799.69
2018-10-21T08:44:57.452Z,101798.05
2018-10-21T08:46:03.741Z,101802.08
2018-10-21T08:47:09.840Z,101796.64
2018-10-21T08:48:16.151Z,101798.30
2018-10-21T08:49:22.222Z,101795.38
2018-10-21T08:50:30.022Z,101796.61
2018-10-21T08:51:36.644Z,101794.64
2018-10-21T08:52:42.570Z,101797.53
2018-10-21T08:53:48.822Z,101797.66
2018-10-21T08:54:55.175Z,101790.50
2018-10-21T08:56:01.339Z,101792.03
2018-10-21T08:57:07.721Z,101789.39
2018-10-21T08:58:14.020Z,101790.57
2018-10-21T08:59:20.761Z,101791.84
2018-10-21T09:00:27.299Z,101798.19
2018-10-21T09:01:33.468Z,101791.41
2018-10-21T09:02:40.010Z,101794.60
2018-10-21T09:03:46.481Z,101789.94
2018-10-21T09:04:52.799Z,101787.16
2018-10-21T09:05:58.900Z,101794.98
2018-10-21T09:07:04.975Z,101792.03
2018-10-21T09:08:11.928Z,101791.09
2018-10-21T09:09:19.211Z,101791.58
2018-10-21T09:10:26.137Z,101791.73
2018-10-21T09:11:32.268Z,101796.56
2018-10-21T09:12:39.231Z,101796.53
2018-10-21T09:13:46.022Z,101797.95
2018-10-21T09:14:54.057Z,101797.80
2018-10-21T09:16:01.038Z,101795.86
2018-10-21T09:17:08.830Z,101792.36
2018-10-21T09:18:15.380Z,101793.88
2018-10-21T09:19:21.366Z,101791.56
2018-10-21T09:20:27.728Z,101788.86
2018-10-21T09:21:33.883Z,101797.61
2018-10-21T09:22:40.668Z,101791.97
2018-10-21T09:23:54.963Z,101789.67
2018-10-21T09:25:01.977Z,101793.02
2018-10-21T09:26:09.218Z,101786.91
2018-10-21T09:27:15.258Z,101795.38
2018-10-21T09:28:21.373Z,101788.77
2018-10-21T09:29:27.899Z,101788.27
2018-10-21T09:30:33.908Z,101788.42
2018-10-21T09:31:40.854Z,101784.23
2018-10-21T09:32:47.188Z,101785.20
2018-10-21T09:33:53.133Z,101786.97
2018-10-21T09:35:01.577Z,101782.87
2018-10-21T09:36:09.025Z,101781.23
2018-10-21T09:37:15.397Z,101780.75
2018-10-21T09:38:21.528Z,101781.78
2018-10-21T09:39:27.815Z,101783.63
2018-10-21T09:40:33.836Z,101780.31
2018-10-21T09:41:41.175Z,101782.01
2018-10-21T09:42:48.017Z,101773.50
2018-10-21T09:43:54.512Z,101773.88
2018-10-21T09:45:05.018Z,101776.30
2018-10-21T09:46:11.400Z,101778.27
2018-10-21T09:47:18.753Z,101779.80
2018-10-21T09:48:24.978Z,101782.56
2018-10-21T09:49:31.999Z,101773.45
2018-10-21T09:50:39.093Z,101776.88
2018-10-21T09:51:46.368Z,101773.02
2018-10-21T09:52:52.880Z,101773.56
2018-10-21T09:53:59.450Z,101773.00
2018-10-21T09:55:05.138Z,101769.74
2018-10-21T09:56:11.785Z,101774.19
2018-10-21T09:57:18.479Z,101767.03
2018-10-21T09:58:24.773Z,101770.25
2018-10-21T09:59:32.193Z,101773.54
2018-10-21T10:00:38.689Z,101770.62
2018-10-21T10:03:18.198Z,101772.91
2018-10-21T10:04:24.139Z,101774.55
2018-10-21T10:05:31.480Z,101773.79
2018-10-21T10:06:37.998Z,101772.66
2018-10-21T10:07:44.253Z,101765.87
2018-10-21T10:08:50.670Z,101771.80
2018-10-21T10:09:57.359Z,101773.34
2018-10-21T10:11:03.863Z,101770.48
2018-10-21T10:12:11.158Z,101766.23
2018-10-21T10:13:18.055Z,101768.23
2018-10-21T10:14:25.146Z,101768.41
2018-10-21T10:15:33.998Z,101766.91
2018-10-21T10:16:40.526Z,101766.99
2018-10-21T10:17:47.203Z,101764.09
2018-10-21T10:18:53.656Z,101753.95
2018-10-21T10:20:00.319Z,101760.87
2018-10-21T10:21:06.561Z,101758.66
2018-10-21T10:22:12.339Z,101758.67
2018-10-21T10:23:18.937Z,101758.28
2018-10-21T10:24:26.023Z,101756.03
2018-10-21T10:25:32.291Z,101751.81
2018-10-21T10:26:38.569Z,101762.39
2018-10-21T10:27:46.869Z,101757.46
2018-10-21T10:28:53.468Z,101756.58
2018-10-21T10:30:00.497Z,101753.93
2018-10-21T10:31:07.230Z,101751.30
2018-10-21T10:32:13.819Z,101747.80
2018-10-21T10:33:21.418Z,101742.70
2018-10-21T10:34:27.367Z,101745.02
2018-10-21T10:35:33.307Z,101742.06
2018-10-21T10:36:39.700Z,101740.75
2018-10-21T10:37:46.166Z,101739.44
2018-10-21T10:38:52.435Z,101735.38
2018-10-21T10:39:58.580Z,101741.16
2018-10-21T10:41:04.357Z,101734.17
2018-10-21T10:42:10.853Z,101741.25
2018-10-21T10:43:17.261Z,101738.66
2018-10-21T10:44:23.937Z,101739.59
2018-10-21T10:45:30.426Z,101740.85
2018-10-21T10:46:36.100Z,101745.05
2018-10-21T10:47:42.359Z,101733.17
2018-10-21T10:48:48.546Z,101734.12
2018-10-21T10:49:55.545Z,101736.00
2018-10-21T10:51:01.705Z,101733.47
2018-10-21T10:52:08.067Z,101730.94
2018-10-21T10:53:14.125Z,101733.45
2018-10-21T10:54:20.319Z,101735.17
2018-10-21T10:55:26.816Z,101729.91
2018-10-21T10:56:33.087Z,101730.34
2018-10-21T10:57:39.708Z,101729.91
2018-10-21T10:58:45.430Z,101729.06
2018-10-21T10:59:51.957Z,101726.23
2018-10-21T11:00:58.016Z,101727.16
2018-10-21T11:02:04.069Z,101724.31
2018-10-21T11:03:09.886Z,101727.58
2018-10-21T11:04:15.862Z,101722.47
2018-10-21T11:05:22.582Z,101723.42
2018-10-21T11:06:29.183Z,101719.33
2018-10-21T11:07:36.438Z,101714.83
2018-10-21T11:08:45.948Z,101709.80
2018-10-21T11:09:53.347Z,101711.52
2018-10-21T11:10:59.508Z,101707.31
2018-10-21T11:12:05.725Z,101709.95
2018-10-21T11:13:14.181Z,101707.04
2018-10-21T11:14:21.543Z,101706.06
2018-10-21T11:15:27.860Z,101704.63
2018-10-21T11:16:34.754Z,101695.11
2018-10-21T11:17:41.136Z,101702.35
2018-10-21T11:18:47.653Z,101697.63
2018-10-21T11:19:54.204Z,101696.30
2018-10-21T11:21:00.137Z,101701.96
2018-10-21T11:22:05.793Z,101694.26
2018-10-21T11:23:12.210Z,101696.28
2018-10-21T11:24:18.511Z,101695.48
2018-10-21T11:25:24.156Z,101690.77
2018-10-21T11:26:30.097Z,101691.69
2018-10-21T11:27:36.006Z,101693.17
2018-10-21T11:28:42.382Z,101692.98
2018-10-21T11:29:48.727Z,101690.89
2018-10-21T11:30:55.298Z,101684.27
2018-10-21T11:32:02.557Z,101682.88
2018-10-21T11:33:29.224Z,101679.25
2018-10-21T11:34:35.689Z,101684.20
2018-10-21T11:35:42.146Z,101676.72
2018-10-21T11:36:55.759Z,101678.26
2018-10-21T11:38:03.217Z,101679.96
2018-10-21T11:39:11.139Z,101675.13
2018-10-21T11:40:21.843Z,101682.57
2018-10-21T11:41:32.945Z,101677.98
2018-10-21T11:42:44.045Z,101683.04
2018-10-21T11:43:52.541Z,101683.01
2018-10-21T11:44:59.562Z,101676.81
2018-10-21T11:46:06.728Z,101681.46
2018-10-21T11:47:13.511Z,101679.38
2018-10-21T11:48:20.846Z,101673.87
2018-10-21T11:49:27.003Z,101674.06
2018-10-21T11:50:36.934Z,101671.70
2018-10-21T11:51:47.703Z,101673.60
2018-10-21T11:52:53.894Z,101670.81
2018-10-21T11:54:03.537Z,101669.64
2018-10-21T11:55:09.108Z,101667.42
2018-10-21T11:56:16.260Z,101667.44
2018-10-21T11:57:22.673Z,101674.68
2018-10-21T11:58:29.013Z,101668.46
2018-10-21T11:59:35.306Z,101672.03
2018-10-21T12:00:43.044Z,101668.17
2018-10-21T12:01:49.791Z,101669.45
2018-10-21T12:02:56.996Z,101670.33
2018-10-21T12:04:03.681Z,101669.14
2018-10-21T12:05:10.427Z,101668.94
2018-10-21T12:06:17.313Z,101668.27
2018-10-21T12:07:23.847Z,101666.95
2018-10-21T12:08:31.107Z,101670.60
2018-10-21T12:09:37.455Z,101670.69
2018-10-21T12:10:44.890Z,101669.25
2018-10-21T12:11:52.066Z,101673.27
2018-10-21T12:12:58.087Z,101670.22
2018-10-21T12:14:04.108Z,101659.91
2018-10-21T12:15:10.446Z,101665.18
2018-10-21T12:16:16.614Z,101661.66
2018-10-21T12:17:23.122Z,101664.61
2018-10-21T12:18:29.458Z,101661.73
2018-10-21T12:19:35.797Z,101659.93
2018-10-21T12:20:43.342Z,101655.82
2018-10-21T12:21:49.851Z,101657.73
2018-10-21T12:22:56.136Z,101655.94
2018-10-21T12:24:02.944Z,101655.39
2018-10-21T12:25:08.922Z,101659.95
2018-10-21T12:26:15.149Z,101657.44
2018-10-21T12:27:21.656Z,101656.22
2018-10-21T12:28:27.898Z,101658.28
2018-10-21T12:29:34.962Z,101654.66
2018-10-21T12:30:41.685Z,101652.66
2018-10-21T12:31:48.937Z,101658.09
2018-10-21T12:32:56.760Z,101658.61
2018-10-21T12:34:03.209Z,101659.64
2018-10-21T12:35:09.102Z,101652.27
2018-10-21T12:36:15.446Z,101652.91
2018-10-21T12:37:22.250Z,101656.00
2018-10-21T12:38:28.170Z,101653.97
2018-10-21T12:39:35.247Z,101650.86
2018-10-21T12:40:43.349Z,101651.47
2018-10-21T12:41:50.030Z,101648.17
2018-10-21T12:42:56.881Z,101649.44
2018-10-21T12:44:03.467Z,101645.67
2018-10-21T12:45:09.109Z,101646.68
2018-10-21T12:46:23.534Z,101647.13
2018-10-21T12:47:36.646Z,101643.80
2018-10-21T12:49:32.009Z,101639.39
2018-10-21T12:50:38.413Z,101639.02
2018-10-21T12:51:49.800Z,101641.58
2018-10-21T12:53:02.271Z,101642.98
2018-10-21T12:54:11.173Z,101634.84
2018-10-21T12:55:22.047Z,101639.16
2018-10-21T12:56:53.661Z,101633.72
2018-10-21T12:57:59.756Z,101633.45
2018-10-21T12:59:07.733Z,101638.91
2018-10-21T13:00:14.203Z,101637.79
2018-10-21T13:01:20.363Z,101632.37
2018-10-21T13:02:27.092Z,101630.30
2018-10-21T13:03:34.066Z,101633.05
2018-10-21T13:04:40.266Z,101629.73
2018-10-21T13:05:48.536Z,101629.08
2018-10-21T13:06:56.046Z,101628.58
2018-10-21T13:08:03.202Z,101628.73
2018-10-21T13:09:11.926Z,101624.16
2018-10-21T13:10:19.446Z,101626.37